createdAt,value
2019-03-29T00:03:30.723Z,9.73
2019-03-29T00:08:32.703Z,9.05
2019-03-29T00:13:35.050Z,9.10
2019-03-29T00:18:37.753Z,8.85
2019-03-29T00:23:39.881Z,9.05
2019-03-29T00:28:42.124Z,8.75
2019-03-29T00:33:44.344Z,8.90
2019-03-29T00:38:49.012Z,8.93
2019-03-29T00:43:51.659Z,9.08
2019-03-29T00:48:54.798Z,8.60
2019-03-29T00:53:59.377Z,8.65
2019-03-29T00:59:01.743Z,9.40
2019-03-29T01:04:04.301Z,8.20
2019-03-29T01:09:06.639Z,9.35
2019-03-29T01:14:08.853Z,9.00
2019-03-29T01:19:11.510Z,9.08
2019-03-29T01:24:14.140Z,9.13
2019-03-29T01:29:16.706Z,8.70
2019-03-29T01:34:18.698Z,9.63
2019-03-29T01:39:20.700Z,9.03
2019-03-29T01:44:22.699Z,9.00
2019-03-29T01:49:24.691Z,9.95
2019-03-29T01:54:26.723Z,9.48
2019-03-29T01:59:28.782Z,9.50
2019-03-29T02:04:30.755Z,8.85
2019-03-29T02:09:32.638Z,9.00
2019-03-29T02:14:34.604Z,9.65
2019-03-29T02:19:36.628Z,8.95
2019-03-29T02:24:38.673Z,9.68
2019-03-29T02:29:40.710Z,9.18
2019-03-29T02:34:43.667Z,10.10
2019-03-29T02:39:46.083Z,9.75
2019-03-29T02:44:48.055Z,9.98
2019-03-29T02:49:49.987Z,9.15
2019-03-29T02:54:51.963Z,8.55
2019-03-29T02:59:54.277Z,9.43
2019-03-29T03:04:56.126Z,9.58
2019-03-29T03:09:58.470Z,8.75
2019-03-29T03:15:00.457Z,9.25
2019-03-29T03:20:02.315Z,10.18
2019-03-29T03:25:04.586Z,9.28
2019-03-29T03:30:09.121Z,9.35
2019-03-29T03:35:11.320Z,9.95
2019-03-29T03:40:14.205Z,9.48
2019-03-29T03:45:16.193Z,9.13
2019-03-29T03:50:27.977Z,8.85
2019-03-29T03:55:30.172Z,9.55
2019-03-29T04:00:39.943Z,9.63
2019-03-29T04:05:41.961Z,9.73
2019-03-29T04:10:43.919Z,10.05
2019-03-29T04:15:45.919Z,9.18
2019-03-29T04:20:47.836Z,10.53
2019-03-29T04:25:49.751Z,8.88
2019-03-29T04:30:51.890Z,10.23
2019-03-29T04:35:53.933Z,9.45
2019-03-29T04:40:55.895Z,10.50
2019-03-29T04:45:57.826Z,10.80
2019-03-29T04:50:59.864Z,9.15
2019-03-29T04:56:01.841Z,9.90
2019-03-29T05:01:03.821Z,11.03
2019-03-29T05:06:06.273Z,10.32
2019-03-29T05:11:08.565Z,10.05
2019-03-29T05:16:10.558Z,10.15
2019-03-29T05:21:12.534Z,10.40
2019-03-29T05:26:14.545Z,10.60
2019-03-29T05:31:16.583Z,10.25
2019-03-29T05:36:18.635Z,9.58
2019-03-29T05:41:20.777Z,10.20
2019-03-29T05:46:22.872Z,9.90
2019-03-29T05:51:27.465Z,10.00
2019-03-29T05:56:29.451Z,10.90
2019-03-29T06:01:31.724Z,10.40
2019-03-29T06:06:33.943Z,10.43
2019-03-29T06:11:35.991Z,9.88
2019-03-29T06:16:39.133Z,9.85
2019-03-29T06:21:41.683Z,10.60
2019-03-29T06:26:44.034Z,10.93
2019-03-29T06:31:46.204Z,11.38
2019-03-29T06:36:49.959Z,10.38
2019-03-29T06:41:52.328Z,10.70
2019-03-29T06:46:54.315Z,10.45
2019-03-29T06:51:56.458Z,10.30
2019-03-29T06:56:58.608Z,10.18
2019-03-29T07:02:00.659Z,9.10
2019-03-29T07:07:02.727Z,10.40
2019-03-29T07:12:04.804Z,9.60
2019-03-29T07:17:10.127Z,11.00
2019-03-29T07:22:10.646Z,10.82
2019-03-29T07:27:12.639Z,10.68
2019-03-29T07:32:14.750Z,10.78
2019-03-29T07:37:16.759Z,11.35
2019-03-29T07:42:18.794Z,10.90
2019-03-29T07:47:20.752Z,11.25
2019-03-29T07:52:22.894Z,11.30
2019-03-29T07:57:24.930Z,11.38
2019-03-29T08:02:26.954Z,11.40
2019-03-29T08:07:31.464Z,10.70
2019-03-29T08:12:32.991Z,10.65
2019-03-29T08:17:35.000Z,11.10
2019-03-29T08:22:36.987Z,10.70
2019-03-29T08:27:38.999Z,11.20
2019-03-29T08:32:42.069Z,11.00
2019-03-29T08:37:44.057Z,11.20
2019-03-29T08:42:46.046Z,10.48
2019-03-29T08:47:48.055Z,10.48
2019-03-29T08:52:50.116Z,10.05
2019-03-29T08:57:52.076Z,9.48
2019-03-29T09:02:54.083Z,10.23
2019-03-29T09:07:56.499Z,10.13
2019-03-29T09:12:58.584Z,10.40
2019-03-29T09:18:00.593Z,9.60
2019-03-29T09:23:02.576Z,9.03
2019-03-29T09:28:04.625Z,7.65
2019-03-29T09:33:06.657Z,7.45
2019-03-29T09:38:08.668Z,6.90
2019-03-29T09:43:10.785Z,6.95
2019-03-29T09:48:12.766Z,6.90
2019-03-29T09:53:14.827Z,7.20
2019-03-29T09:58:17.113Z,5.90
2019-03-29T10:03:19.289Z,5.95
2019-03-29T10:08:21.343Z,5.67
2019-03-29T10:13:23.387Z,6.50
2019-03-29T10:18:25.421Z,5.15
2019-03-29T10:23:27.334Z,5.42
2019-03-29T10:28:29.398Z,5.30
2019-03-29T10:33:31.448Z,4.58
2019-03-29T10:38:33.421Z,4.58
2019-03-29T10:43:35.618Z,4.30
2019-03-29T10:48:37.599Z,3.72
2019-03-29T10:53:39.552Z,3.62
2019-03-29T10:58:44.730Z,3.67
2019-03-29T11:03:45.342Z,3.70
2019-03-29T11:08:47.313Z,3.65
2019-03-29T11:13:49.373Z,2.98
2019-03-29T11:18:51.530Z,2.58
2019-03-29T11:23:53.584Z,3.30
2019-03-29T11:28:55.589Z,3.83
2019-03-29T11:33:57.589Z,3.25
2019-03-29T11:38:59.635Z,3.42
2019-03-29T11:44:01.750Z,3.40
2019-03-29T11:49:03.809Z,3.70
2019-03-29T11:54:05.828Z,3.50
2019-03-29T11:59:07.837Z,3.35
2019-03-29T12:04:09.886Z,3.27
2019-03-29T12:09:11.941Z,3.60
2019-03-29T12:14:14.024Z,3.22
2019-03-29T12:19:16.029Z,3.37
2019-03-29T12:24:18.235Z,3.33
2019-03-29T12:29:20.227Z,3.92
2019-03-29T12:34:22.294Z,3.87
2019-03-29T12:39:24.303Z,3.72
2019-03-29T12:44:26.291Z,3.52
2019-03-29T12:49:28.295Z,3.67
2019-03-29T12:54:30.359Z,4.12
2019-03-29T12:59:33.092Z,3.40
2019-03-29T13:04:35.165Z,3.40
2019-03-29T13:09:39.602Z,4.45
2019-03-29T13:14:40.970Z,3.58
2019-03-29T13:19:42.996Z,4.20
2019-03-29T13:24:45.109Z,3.90
2019-03-29T13:29:47.184Z,3.60
2019-03-29T13:34:51.308Z,3.62
2019-03-29T13:39:52.997Z,3.20
2019-03-29T13:44:55.025Z,3.67
2019-03-29T13:49:57.036Z,4.03
2019-03-29T13:54:59.098Z,3.60
2019-03-29T14:00:01.173Z,3.37
2019-03-29T14:05:03.283Z,3.45
2019-03-29T14:10:06.355Z,3.50
2019-03-29T14:15:08.776Z,3.30
2019-03-29T14:20:10.844Z,3.30
2019-03-29T14:25:12.952Z,3.27
2019-03-29T14:30:14.976Z,2.90
2019-03-29T14:35:17.013Z,2.80
2019-03-29T14:40:19.045Z,3.15
2019-03-29T14:45:21.087Z,2.47
2019-03-29T14:50:23.101Z,2.40
2019-03-29T14:55:25.114Z,2.40
2019-03-29T15:00:37.230Z,2.85
2019-03-29T15:05:39.359Z,2.70
2019-03-29T15:10:41.406Z,2.55
2019-03-29T15:15:43.454Z,2.45
2019-03-29T15:20:53.243Z,2.10
2019-03-29T15:25:49.326Z,2.50
2019-03-29T15:30:52.506Z,2.75
2019-03-29T15:35:54.633Z,2.50
2019-03-29T15:40:56.670Z,2.80
2019-03-29T15:45:58.740Z,2.17
2019-03-29T15:51:00.784Z,2.20
2019-03-29T15:56:02.939Z,2.25
2019-03-29T16:01:05.196Z,2.33
2019-03-29T16:06:07.232Z,2.20
2019-03-29T16:11:09.381Z,2.33
2019-03-29T16:16:13.014Z,2.25
2019-03-29T16:21:15.078Z,2.72
2019-03-29T16:26:17.138Z,2.45
2019-03-29T16:31:19.172Z,2.58
2019-03-29T16:36:21.281Z,2.12
2019-03-29T16:41:23.329Z,2.50
2019-03-29T16:46:25.228Z,2.20
2019-03-29T16:51:27.231Z,2.50
2019-03-29T16:56:29.328Z,2.45
2019-03-29T17:01:31.324Z,2.33
2019-03-29T17:06:35.929Z,2.30
2019-03-29T17:11:37.871Z,2.58
2019-03-29T17:16:39.976Z,2.67
2019-03-29T17:21:42.138Z,2.47
2019-03-29T17:26:44.250Z,2.50
2019-03-29T17:31:46.607Z,2.40
2019-03-29T17:36:48.720Z,2.58
2019-03-29T17:41:55.885Z,2.90
2019-03-29T17:46:58.229Z,2.77
2019-03-29T17:52:00.253Z,3.05
2019-03-29T17:57:02.331Z,2.92
2019-03-29T18:02:09.483Z,3.42
2019-03-29T18:07:08.376Z,3.67
2019-03-29T18:12:11.470Z,3.62
2019-03-29T18:17:13.646Z,3.17
2019-03-29T18:22:17.978Z,3.45
2019-03-29T18:27:20.090Z,3.95
2019-03-29T18:32:22.226Z,3.67
2019-03-29T18:37:24.372Z,3.40
2019-03-29T18:42:26.397Z,3.40
2019-03-29T18:47:28.461Z,3.67
2019-03-29T18:52:30.529Z,3.42
2019-03-29T18:57:32.537Z,3.90
2019-03-29T19:02:34.647Z,4.65
2019-03-29T19:07:36.653Z,4.03
2019-03-29T19:12:39.044Z,4.37
2019-03-29T19:17:41.062Z,4.40
2019-03-29T19:22:43.076Z,4.97
2019-03-29T19:27:45.058Z,5.30
2019-03-29T19:32:47.055Z,5.28
2019-03-29T19:37:49.046Z,5.70
2019-03-29T19:42:51.055Z,5.25
2019-03-29T19:47:53.057Z,6.10
2019-03-29T19:52:55.034Z,6.33
2019-03-29T19:57:57.200Z,6.33
2019-03-29T20:02:59.207Z,5.87
2019-03-29T20:08:01.248Z,6.40
2019-03-29T20:13:03.335Z,5.97
2019-03-29T20:18:05.314Z,6.60
2019-03-29T20:23:07.351Z,6.05
2019-03-29T20:28:09.421Z,7.37
2019-03-29T20:33:13.286Z,6.47
2019-03-29T20:38:15.530Z,7.33
2019-03-29T20:43:17.503Z,8.08
2019-03-29T20:48:22.907Z,7.80
2019-03-29T20:57:57.024Z,7.47
2019-03-29T21:03:00.109Z,7.50
2019-03-29T21:08:08.423Z,7.37
2019-03-29T21:13:11.320Z,8.08
2019-03-29T21:18:17.356Z,8.30
2019-03-29T21:23:19.361Z,7.37
2019-03-29T21:28:23.106Z,7.85
2019-03-29T21:33:26.359Z,7.60
2019-03-29T21:38:30.596Z,7.65
2019-03-29T21:43:34.363Z,8.03
2019-03-29T21:48:37.213Z,8.03
2019-03-29T21:53:43.982Z,7.92
2019-03-29T21:58:48.851Z,8.73
2019-03-29T22:03:53.159Z,9.57
2019-03-29T22:08:57.264Z,8.55
2019-03-29T22:14:00.895Z,8.68
2019-03-29T22:19:03.486Z,8.43
2019-03-29T22:24:06.099Z,7.97
2019-03-29T22:29:08.749Z,7.87
2019-03-29T22:34:11.333Z,8.10
2019-03-29T22:39:13.951Z,7.83
2019-03-29T22:44:16.522Z,8.50
2019-03-29T22:49:19.167Z,8.18
2019-03-29T22:54:21.776Z,8.45
2019-03-29T22:59:24.431Z,8.43
2019-03-29T23:04:27.144Z,8.63
2019-03-29T23:09:29.814Z,9.38
2019-03-29T23:14:32.441Z,9.28
2019-03-29T23:19:35.011Z,9.95
2019-03-29T23:24:37.809Z,9.48
2019-03-29T23:29:40.463Z,8.78
2019-03-29T23:34:43.088Z,9.03
2019-03-29T23:39:45.750Z,9.53
2019-03-29T23:44:48.346Z,8.38
2019-03-29T23:49:50.965Z,8.68
2019-03-29T23:54:53.566Z,8.55
2019-03-29T23:59:56.173Z,8.33
